Aviation Digital Data Service (ADDS)

Output produced by METARs form (1721 UTC 18 January 2018)
found at http://aviationweather.gov/adds/metars/
 
KLFK 181720Z 1818/1918 14005KT P6SM SKC 
     FM182000 17005KT P6SM BKN050 BKN250 
     FM190100 VRB03KT P6SM BKN050 BKN180 
     FM191600 15006KT P6SM BKN060 BKN180